Time;durP1;ratioP1;P1;durP2;ratioP2;P2;SDS_P1;SDS_P2;PMS_P1;PMS_P2;Temp;Humidity;BMP_temperature;BMP_pressure;BME280_temperature;BME280_humidity;BME280_pressure;Samples;Min_cycle;Max_cycle;Signal;HPM_P1;HPM_P2
2022/03/30 00:00:47;;;;;;;2.73;1.90;;;4.90;99.90;;;;;;4992513;28;20802;-70
2022/03/30 00:03:13;;;;;;;1.20;0.90;;;4.80;99.90;;;;;;4992463;28;20415;-70
2022/03/30 00:05:38;;;;;;;2.20;1.73;;;4.80;99.90;;;;;;4992212;28;20220;-71
2022/03/30 00:08:04;;;;;;;3.77;1.23;;;4.80;99.90;;;;;;4992513;28;20275;-70
2022/03/30 00:10:30;;;;;;;1.20;1.10;;;4.80;99.90;;;;;;4992317;28;20311;-70
2022/03/30 00:12:56;;;;;;;2.50;1.60;;;4.70;99.90;;;;;;4992219;28;20922;-70
2022/03/30 00:15:22;;;;;;;5.80;1.43;;;4.60;99.90;;;;;;4992187;28;20176;-70
2022/03/30 00:17:48;;;;;;;1.20;1.10;;;4.60;99.90;;;;;;4992220;28;20431;-71
2022/03/30 00:20:13;;;;;;;2.23;1.33;;;4.60;99.90;;;;;;4992129;28;20458;-71
2022/03/30 00:22:40;;;;;;;3.10;1.20;;;4.60;99.90;;;;;;4992026;28;20205;-71
2022/03/30 00:25:08;;;;;;;1.33;1.23;;;4.60;99.90;;;;;;4992049;28;20259;-70
2022/03/30 00:27:34;;;;;;;3.80;1.30;;;4.60;99.90;;;;;;4991953;28;20447;-70
2022/03/30 00:30:00;;;;;;;1.40;1.30;;;4.50;99.90;;;;;;4992168;28;20913;-70
2022/03/30 00:32:25;;;;;;;1.83;1.40;;;4.50;99.90;;;;;;4991907;28;20499;-71
2022/03/30 00:34:50;;;;;;;3.73;1.40;;;4.50;99.90;;;;;;4991729;28;20185;-71
2022/03/30 00:37:16;;;;;;;1.33;1.20;;;4.50;99.90;;;;;;4991803;28;20207;-71
2022/03/30 00:39:42;;;;;;;2.83;1.50;;;4.50;99.90;;;;;;4991990;28;20235;-71
2022/03/30 00:42:18;;;;;;;1.60;1.47;;;4.40;99.90;;;;;;4992140;28;20173;-70
2022/03/30 00:44:44;;;;;;;0.90;0.90;;;4.40;99.90;;;;;;4991960;28;20172;-70
2022/03/30 00:47:23;;;;;;;2.30;1.10;;;4.40;99.90;;;;;;4990534;28;20434;-72
2022/03/30 00:49:49;;;;;;;4.20;1.07;;;4.30;99.90;;;;;;4991982;28;20489;-70
2022/03/30 00:52:16;;;;;;;1.97;1.67;;;4.30;99.90;;;;;;4991789;28;20514;-71
2022/03/30 00:54:44;;;;;;;2.70;1.00;;;4.30;99.90;;;;;;4992344;28;20440;-71
2022/03/30 00:57:11;;;;;;;1.47;1.00;;;4.30;99.90;;;;;;4991823;28;20459;-70
2022/03/30 00:59:38;;;;;;;3.47;1.27;;;4.40;99.90;;;;;;4991907;28;20416;-70
2022/03/30 01:02:04;;;;;;;1.30;1.20;;;4.40;99.90;;;;;;4991551;28;20419;-70
2022/03/30 01:04:33;;;;;;;4.10;1.93;;;4.30;99.90;;;;;;4991682;28;20412;-70
2022/03/30 01:06:59;;;;;;;2.20;1.37;;;4.20;99.90;;;;;;4991586;28;20173;-70
2022/03/30 01:09:25;;;;;;;0.80;0.80;;;4.20;99.90;;;;;;4991679;28;20946;-70
2022/03/30 01:11:53;;;;;;;1.60;1.30;;;4.20;99.90;;;;;;4991702;28;20404;-70
2022/03/30 01:14:19;;;;;;;2.60;1.90;;;4.20;99.90;;;;;;4991677;28;20412;-70
2022/03/30 01:16:44;;;;;;;5.20;1.60;;;4.20;99.90;;;;;;4991528;28;20414;-70
2022/03/30 01:19:10;;;;;;;3.10;1.80;;;4.30;99.90;;;;;;4991672;28;20276;-70
2022/03/30 01:21:40;;;;;;;1.60;1.50;;;4.30;99.90;;;;;;4991853;28;20169;-70
2022/03/30 01:24:08;;;;;;;4.20;2.00;;;4.20;99.90;;;;;;4991623;28;20435;-70
2022/03/30 01:26:34;;;;;;;4.40;2.47;;;4.10;99.90;;;;;;4990988;28;20427;-71
2022/03/30 01:29:00;;;;;;;3.37;2.00;;;4.10;99.90;;;;;;4994690;28;20463;-70
2022/03/30 01:34:11;;;;;;;1.83;1.73;;;4.20;99.90;;;;;;4995180;28;20176;-72
2022/03/30 01:36:37;;;;;;;4.30;1.77;;;4.10;99.90;;;;;;4994994;28;20397;-70
2022/03/30 01:39:03;;;;;;;1.03;1.03;;;4.10;99.90;;;;;;4994677;28;20451;-70
2022/03/30 01:41:32;;;;;;;0.97;0.97;;;4.00;99.90;;;;;;4994744;28;20177;-70
2022/03/30 01:43:58;;;;;;;1.70;1.60;;;4.10;99.90;;;;;;4995063;28;20962;-71
2022/03/30 01:46:24;;;;;;;2.57;1.10;;;4.10;99.90;;;;;;4994829;28;20404;-71
2022/03/30 01:48:50;;;;;;;3.40;1.50;;;4.10;99.90;;;;;;4994615;28;20232;-71
2022/03/30 01:51:16;;;;;;;1.43;1.10;;;4.00;99.90;;;;;;4994733;28;20175;-71
2022/03/30 01:53:42;;;;;;;3.10;2.23;;;4.00;99.90;;;;;;4994497;28;20507;-70
2022/03/30 01:56:07;;;;;;;5.47;1.40;;;4.00;99.90;;;;;;4994609;28;20169;-71
2022/03/30 01:58:33;;;;;;;4.00;2.10;;;3.90;99.90;;;;;;4994488;28;20813;-71
2022/03/30 02:00:58;;;;;;;2.70;1.50;;;3.90;99.90;;;;;;4994591;28;20184;-71
2022/03/30 02:03:25;;;;;;;4.40;1.70;;;3.90;99.90;;;;;;4994579;28;20173;-70
2022/03/30 02:05:52;;;;;;;1.53;1.33;;;3.90;99.90;;;;;;4994428;28;20264;-71
2022/03/30 02:08:18;;;;;;;1.93;1.10;;;3.80;99.90;;;;;;4994285;28;20479;-70
2022/03/30 02:10:43;;;;;;;2.50;1.60;;;3.80;99.90;;;;;;4994698;28;20868;-71
2022/03/30 02:13:10;;;;;;;1.53;1.33;;;3.80;99.90;;;;;;4995072;28;20243;-70
2022/03/30 02:15:35;;;;;;;2.00;1.47;;;3.80;99.90;;;;;;4994411;28;20207;-70
2022/03/30 02:18:05;;;;;;;1.80;1.67;;;3.80;99.90;;;;;;4994319;28;20467;-70
2022/03/30 02:20:30;;;;;;;3.60;2.13;;;3.80;99.90;;;;;;4994144;28;20655;-70
2022/03/30 02:22:56;;;;;;;1.63;1.30;;;3.80;99.90;;;;;;4993978;28;20466;-70
2022/03/30 02:25:22;;;;;;;2.00;1.43;;;3.70;99.90;;;;;;4994004;28;20193;-70
2022/03/30 02:27:48;;;;;;;11.83;2.70;;;3.80;99.90;;;;;;5016523;23;20642;-69
2022/03/30 02:30:13;;;;;;;1.57;1.30;;;3.70;99.90;;;;;;4992679;28;20551;-68
2022/03/30 02:32:40;;;;;;;2.60;1.13;;;3.80;99.90;;;;;;4993140;28;20396;-68
2022/03/30 02:35:06;;;;;;;2.30;1.30;;;3.80;99.90;;;;;;4992959;28;20288;-69
2022/03/30 02:37:32;;;;;;;1.57;1.47;;;3.80;99.90;;;;;;4992513;28;20407;-68
2022/03/30 02:39:57;;;;;;;1.90;1.73;;;3.80;99.90;;;;;;4992562;28;20970;-68
2022/03/30 02:42:24;;;;;;;8.20;2.80;;;3.80;99.90;;;;;;4993069;28;20207;-68
2022/03/30 02:44:49;;;;;;;7.20;2.70;;;3.70;99.90;;;;;;4992890;28;20260;-68
2022/03/30 02:47:15;;;;;;;1.20;0.93;;;3.70;99.90;;;;;;4993086;28;20583;-68
2022/03/30 02:49:40;;;;;;;1.27;1.17;;;3.70;99.90;;;;;;4992785;28;20219;-68
2022/03/30 02:52:06;;;;;;;3.67;1.47;;;3.70;99.90;;;;;;4992850;28;20540;-67
2022/03/30 02:54:32;;;;;;;1.43;1.33;;;3.70;99.90;;;;;;4993005;28;20169;-68
2022/03/30 02:56:58;;;;;;;1.50;1.17;;;3.80;99.90;;;;;;4993269;28;21013;-68
2022/03/30 02:59:25;;;;;;;2.17;1.97;;;3.80;99.90;;;;;;4992964;28;20579;-67
2022/03/30 03:01:51;;;;;;;1.40;1.30;;;3.80;99.90;;;;;;4993116;28;20444;-68
2022/03/30 03:04:16;;;;;;;3.80;1.40;;;3.80;99.90;;;;;;4992597;28;20814;-68
2022/03/30 03:06:42;;;;;;;2.10;1.73;;;3.80;99.90;;;;;;4992470;28;20922;-67
2022/03/30 03:09:08;;;;;;;1.20;1.10;;;3.70;99.90;;;;;;4992392;28;20240;-68
2022/03/30 03:11:34;;;;;;;1.83;1.20;;;3.70;99.90;;;;;;4992655;28;20184;-68
2022/03/30 03:14:05;;;;;;;3.17;1.17;;;3.70;99.90;;;;;;4992550;28;20423;-68
2022/03/30 03:16:31;;;;;;;2.77;1.40;;;3.70;99.90;;;;;;4992479;28;20465;-68
2022/03/30 03:18:56;;;;;;;4.27;2.07;;;3.70;99.90;;;;;;4992269;28;20519;-68
2022/03/30 03:21:22;;;;;;;2.37;1.70;;;3.70;99.90;;;;;;4992239;28;20555;-68
2022/03/30 03:23:48;;;;;;;1.60;1.40;;;3.60;99.90;;;;;;4992353;28;20507;-68
2022/03/30 03:26:14;;;;;;;3.17;1.70;;;3.60;99.90;;;;;;4992309;28;20408;-68
2022/03/30 03:28:39;;;;;;;2.30;1.77;;;3.60;99.90;;;;;;4991702;28;20220;-68
2022/03/30 03:31:05;;;;;;;1.47;1.17;;;3.60;99.90;;;;;;4991866;28;20648;-67
2022/03/30 03:33:30;;;;;;;2.50;1.80;;;3.50;99.90;;;;;;4992056;28;20508;-68
2022/03/30 03:35:56;;;;;;;1.00;1.00;;;3.50;99.90;;;;;;4991845;28;20177;-68
2022/03/30 03:38:21;;;;;;;2.40;1.00;;;3.50;99.90;;;;;;4991814;28;20188;-68
2022/03/30 03:40:47;;;;;;;9.67;2.20;;;3.50;99.90;;;;;;4991808;28;20172;-67
2022/03/30 03:43:12;;;;;;;2.97;2.17;;;3.40;99.90;;;;;;4992020;28;20650;-68
2022/03/30 03:45:38;;;;;;;2.30;1.37;;;3.40;99.90;;;;;;4992491;28;20188;-68
2022/03/30 03:48:04;;;;;;;1.40;1.27;;;3.40;99.90;;;;;;4990889;28;20188;-68
2022/03/30 03:50:29;;;;;;;2.27;1.80;;;3.40;99.90;;;;;;4991781;28;20201;-67
2022/03/30 03:52:55;;;;;;;2.90;2.20;;;3.30;99.90;;;;;;4991932;28;20411;-68
2022/03/30 03:55:21;;;;;;;10.93;2.10;;;3.20;99.90;;;;;;4992289;28;20660;-68
2022/03/30 03:57:47;;;;;;;2.00;1.90;;;3.20;99.90;;;;;;4991912;28;20551;-68
2022/03/30 04:00:13;;;;;;;1.47;1.37;;;3.10;99.90;;;;;;4991820;28;20185;-68
2022/03/30 04:02:39;;;;;;;1.20;1.10;;;3.10;99.90;;;;;;4991462;28;20181;-66
2022/03/30 04:05:05;;;;;;;1.37;1.27;;;3.10;99.90;;;;;;4991155;28;20459;-68
2022/03/30 04:07:32;;;;;;;1.67;1.53;;;3.10;99.90;;;;;;4991614;28;20408;-67
2022/03/30 04:09:57;;;;;;;1.67;1.50;;;3.00;99.90;;;;;;4991370;28;20789;-67
2022/03/30 04:12:23;;;;;;;4.80;1.40;;;3.00;99.90;;;;;;4991514;28;20424;-67
2022/03/30 04:14:49;;;;;;;1.77;1.43;;;3.00;99.90;;;;;;4991185;28;20276;-66
2022/03/30 04:17:15;;;;;;;2.00;1.33;;;3.00;99.90;;;;;;4991287;28;20188;-67
2022/03/30 04:19:40;;;;;;;2.40;1.23;;;3.00;99.90;;;;;;4991200;28;20475;-68
2022/03/30 04:22:06;;;;;;;2.80;1.97;;;3.00;99.90;;;;;;4991248;28;20188;-66
2022/03/30 04:24:31;;;;;;;2.80;2.03;;;3.00;99.90;;;;;;4991179;28;20173;-67
2022/03/30 04:26:56;;;;;;;1.80;1.50;;;3.00;99.90;;;;;;4991250;28;20208;-67
2022/03/30 04:29:22;;;;;;;1.30;1.20;;;3.00;99.90;;;;;;4991000;28;20604;-67
2022/03/30 04:31:49;;;;;;;1.77;1.60;;;3.00;99.90;;;;;;4991216;28;20181;-67
2022/03/30 04:34:15;;;;;;;2.67;2.17;;;3.10;99.90;;;;;;4991245;28;20169;-67
2022/03/30 04:36:40;;;;;;;2.00;1.57;;;3.10;99.90;;;;;;4991131;28;20432;-66
2022/03/30 04:39:05;;;;;;;1.53;1.30;;;3.20;99.90;;;;;;4991805;28;20192;-67
2022/03/30 04:41:31;;;;;;;2.60;1.53;;;3.20;99.90;;;;;;4991382;28;20173;-66
2022/03/30 04:43:57;;;;;;;2.00;1.90;;;3.20;99.90;;;;;;4991469;28;20182;-66
2022/03/30 04:46:22;;;;;;;5.60;3.17;;;3.30;99.90;;;;;;4991307;28;20332;-66
2022/03/30 04:48:47;;;;;;;3.77;1.20;;;3.30;99.90;;;;;;4990802;28;20314;-68
2022/03/30 04:51:13;;;;;;;1.20;1.10;;;3.30;99.90;;;;;;4991155;28;20172;-66
2022/03/30 04:53:38;;;;;;;16.63;2.10;;;3.40;99.90;;;;;;4991051;28;20579;-67
2022/03/30 04:56:05;;;;;;;1.93;1.47;;;3.40;99.90;;;;;;4991118;28;20173;-67
2022/03/30 04:58:30;;;;;;;1.73;1.53;;;3.50;99.90;;;;;;4991484;28;20276;-67
2022/03/30 05:00:56;;;;;;;4.07;1.60;;;3.50;99.90;;;;;;4991985;28;20498;-67
2022/03/30 05:03:21;;;;;;;1.30;1.20;;;3.50;99.90;;;;;;5014390;28;20172;-70
2022/03/30 05:05:47;;;;;;;1.37;1.27;;;3.60;99.90;;;;;;5012850;28;20493;-67
2022/03/30 05:08:12;;;;;;;1.43;1.00;;;3.60;99.90;;;;;;5014397;28;20192;-67
2022/03/30 05:10:38;;;;;;;4.10;1.73;;;3.70;99.90;;;;;;5014071;28;20203;-67
2022/03/30 05:13:04;;;;;;;1.50;1.40;;;3.70;99.90;;;;;;5014076;28;20247;-67
2022/03/30 05:15:30;;;;;;;4.00;1.80;;;3.80;99.90;;;;;;5014207;28;20165;-69
2022/03/30 05:17:56;;;;;;;2.10;2.00;;;3.80;99.90;;;;;;5014105;28;20565;-66
2022/03/30 05:20:22;;;;;;;11.93;2.77;;;3.90;99.90;;;;;;5014556;28;20805;-66
2022/03/30 05:22:48;;;;;;;4.50;2.67;;;3.90;99.90;;;;;;5012517;28;20502;-67
2022/03/30 05:25:15;;;;;;;3.60;1.73;;;4.00;99.90;;;;;;5013973;28;20259;-67
2022/03/30 05:27:42;;;;;;;2.93;1.47;;;4.10;99.90;;;;;;5013695;28;20403;-67
2022/03/30 05:30:08;;;;;;;1.97;1.70;;;4.10;99.90;;;;;;5013904;28;20477;-67
2022/03/30 05:32:35;;;;;;;4.40;2.10;;;4.20;99.90;;;;;;5013943;28;20908;-67
2022/03/30 05:35:01;;;;;;;1.87;1.50;;;4.20;99.90;;;;;;5002592;28;20416;-67
2022/03/30 05:37:27;;;;;;;3.20;2.00;;;4.30;99.90;;;;;;4994152;28;20412;-67
2022/03/30 05:39:53;;;;;;;11.47;1.37;;;4.30;99.90;;;;;;4994285;28;20748;-67
2022/03/30 05:42:20;;;;;;;1.87;1.67;;;4.30;99.90;;;;;;4993762;28;20933;-67
2022/03/30 05:44:46;;;;;;;7.60;1.50;;;4.40;99.90;;;;;;4993648;28;20412;-67
2022/03/30 05:47:12;;;;;;;1.60;1.50;;;4.50;99.90;;;;;;4994214;28;20477;-66
2022/03/30 05:49:38;;;;;;;2.83;1.80;;;4.50;99.90;;;;;;4994054;28;20208;-67
2022/03/30 05:52:04;;;;;;;1.80;1.63;;;4.60;99.90;;;;;;4993977;28;20419;-67
2022/03/30 05:54:30;;;;;;;1.67;1.33;;;4.60;99.90;;;;;;4993795;28;20412;-67
2022/03/30 05:57:02;;;;;;;7.13;2.10;;;4.50;99.90;;;;;;4993902;28;20494;-67
2022/03/30 05:59:32;;;;;;;1.50;1.40;;;4.60;99.90;;;;;;4993851;28;20424;-69
2022/03/30 06:01:59;;;;;;;4.50;2.10;;;4.70;99.90;;;;;;4994230;28;20503;-68
2022/03/30 06:04:25;;;;;;;1.20;1.10;;;4.80;99.90;;;;;;4994352;28;20412;-68
2022/03/30 06:06:51;;;;;;;1.83;1.13;;;4.80;99.90;;;;;;4994192;28;20774;-68
2022/03/30 06:09:17;;;;;;;1.43;1.10;;;4.80;99.90;;;;;;4993575;28;20471;-68
2022/03/30 06:11:44;;;;;;;1.53;1.43;;;4.80;99.90;;;;;;4993603;28;20412;-67
2022/03/30 06:14:09;;;;;;;1.70;1.30;;;4.80;99.90;;;;;;4993185;28;20890;-67
2022/03/30 06:16:35;;;;;;;2.07;1.10;;;4.80;99.90;;;;;;4993533;28;20420;-68
2022/03/30 06:19:02;;;;;;;6.90;1.63;;;4.80;99.90;;;;;;4993626;28;20193;-67
2022/03/30 06:21:29;;;;;;;1.33;1.23;;;4.90;99.90;;;;;;4993844;28;20448;-68
2022/03/30 06:23:54;;;;;;;2.10;1.10;;;5.10;99.90;;;;;;4993583;28;20411;-68
2022/03/30 06:26:20;;;;;;;1.70;1.10;;;5.30;99.90;;;;;;4993249;28;20412;-69
2022/03/30 06:28:47;;;;;;;1.23;1.13;;;5.30;99.90;;;;;;4993326;28;20291;-67
2022/03/30 06:31:17;;;;;;;2.13;1.63;;;5.40;99.90;;;;;;4993962;28;20161;-68
2022/03/30 06:33:43;;;;;;;1.63;1.17;;;5.40;99.90;;;;;;4993408;28;20400;-68
2022/03/30 06:36:08;;;;;;;1.50;1.40;;;5.40;99.90;;;;;;4993212;28;20405;-67
2022/03/30 06:38:34;;;;;;;2.70;2.30;;;5.50;99.90;;;;;;4993035;28;20508;-67
2022/03/30 06:40:59;;;;;;;1.20;1.10;;;5.40;99.90;;;;;;4992769;28;20653;-67
2022/03/30 06:43:25;;;;;;;2.10;1.27;;;5.60;99.90;;;;;;4992971;28;20181;-68
2022/03/30 06:45:50;;;;;;;5.20;1.40;;;5.60;99.90;;;;;;4993094;28;20189;-67
2022/03/30 06:48:16;;;;;;;7.33;1.60;;;5.80;99.90;;;;;;4991685;28;20642;-67
2022/03/30 06:50:41;;;;;;;1.50;1.27;;;6.10;99.90;;;;;;4992952;28;20246;-66
2022/03/30 06:53:09;;;;;;;1.87;1.73;;;6.10;99.90;;;;;;4992676;28;20168;-68
2022/03/30 06:55:35;;;;;;;3.30;1.20;;;6.10;99.90;;;;;;4992567;28;20193;-67
2022/03/30 06:58:01;;;;;;;2.20;1.47;;;6.40;99.90;;;;;;4992596;28;20439;-67
2022/03/30 07:00:26;;;;;;;2.60;1.43;;;6.90;99.90;;;;;;4992640;28;20810;-67
2022/03/30 07:02:52;;;;;;;2.00;1.40;;;6.80;99.90;;;;;;4992781;28;20192;-67
2022/03/30 07:05:18;;;;;;;0.83;0.83;;;6.90;99.90;;;;;;4992679;28;20184;-67
2022/03/30 07:10:28;;;;;;;2.13;1.20;;;7.70;99.90;;;;;;4992859;28;20466;-67
2022/03/30 07:12:53;;;;;;;1.53;1.10;;;7.80;99.90;;;;;;4992603;28;20856;-68
2022/03/30 07:15:20;;;;;;;1.40;1.30;;;7.80;99.90;;;;;;4992455;28;20164;-69
2022/03/30 07:17:51;;;;;;;1.70;0.93;;;7.80;99.90;;;;;;4992960;28;20228;-67
2022/03/30 07:20:18;;;;;;;3.40;1.37;;;7.90;99.90;;;;;;4993112;28;20459;-68
2022/03/30 07:22:44;;;;;;;5.13;2.00;;;7.40;99.90;;;;;;4992622;28;20405;-67
2022/03/30 07:25:10;;;;;;;2.73;1.60;;;6.90;99.90;;;;;;4991719;28;20408;-67
2022/03/30 07:27:44;;;;;;;2.83;1.40;;;7.00;99.90;;;;;;4992165;28;20408;-68
2022/03/30 07:30:11;;;;;;;2.43;1.53;;;7.50;99.90;;;;;;4992265;28;20478;-70
2022/03/30 07:32:39;;;;;;;3.63;1.20;;;7.60;99.90;;;;;;4993002;28;20985;-69
2022/03/30 07:35:06;;;;;;;2.37;1.27;;;7.70;99.90;;;;;;4992084;28;20466;-67
2022/03/30 07:37:32;;;;;;;1.53;1.10;;;7.90;99.90;;;;;;4992414;28;20406;-67
2022/03/30 07:39:59;;;;;;;3.43;1.67;;;7.80;99.90;;;;;;5000526;28;20412;-67
2022/03/30 07:42:25;;;;;;;3.57;2.03;;;8.00;99.90;;;;;;4991807;28;20351;-67
2022/03/30 07:44:51;;;;;;;1.80;1.30;;;8.10;99.90;;;;;;4990635;28;20418;-67
2022/03/30 07:47:17;;;;;;;1.70;1.57;;;7.90;99.90;;;;;;4992198;28;20415;-68
2022/03/30 07:49:43;;;;;;;6.10;1.70;;;8.20;99.90;;;;;;4991678;28;20551;-68
2022/03/30 07:52:09;;;;;;;2.23;1.50;;;8.30;99.90;;;;;;4989319;28;20416;-67
2022/03/30 07:54:34;;;;;;;3.40;1.30;;;8.50;99.90;;;;;;4989082;28;20735;-67
2022/03/30 07:57:00;;;;;;;1.63;1.10;;;8.60;99.90;;;;;;4995424;28;20181;-67
2022/03/30 07:59:25;;;;;;;1.33;1.23;;;9.00;99.90;;;;;;4991620;28;20272;-68
2022/03/30 08:01:53;;;;;;;2.90;1.53;;;9.00;99.90;;;;;;4991678;28;20191;-70
2022/03/30 08:04:19;;;;;;;1.20;0.90;;;9.50;99.90;;;;;;4991856;28;20255;-68
2022/03/30 08:06:45;;;;;;;2.00;1.27;;;9.50;99.90;;;;;;4991842;28;20458;-69
2022/03/30 08:09:10;;;;;;;5.87;1.70;;;9.50;99.90;;;;;;4991824;28;20462;-67
2022/03/30 08:11:36;;;;;;;2.50;1.27;;;9.40;99.90;;;;;;4991874;28;20183;-67
2022/03/30 08:14:01;;;;;;;1.30;1.20;;;9.80;99.90;;;;;;4991960;28;20638;-68
2022/03/30 08:16:27;;;;;;;1.90;1.20;;;9.90;99.70;;;;;;4991647;28;20177;-67
2022/03/30 08:18:52;;;;;;;2.17;1.57;;;10.30;98.60;;;;;;4992103;28;20204;-66
2022/03/30 08:24:02;;;;;;;2.50;1.27;;;10.10;97.80;;;;;;4991890;28;20172;-68
2022/03/30 08:26:28;;;;;;;2.90;1.70;;;9.80;99.10;;;;;;4991581;28;20845;-67
2022/03/30 08:28:54;;;;;;;5.90;1.60;;;9.90;98.70;;;;;;5029855;23;20481;-68
2022/03/30 08:31:20;;;;;;;1.20;1.10;;;9.70;98.40;;;;;;5031490;28;20671;-68
2022/03/30 08:33:45;;;;;;;1.70;1.50;;;9.70;98.20;;;;;;5031689;28;20406;-68
2022/03/30 08:36:11;;;;;;;2.83;1.60;;;9.20;98.50;;;;;;5032115;28;20176;-69
2022/03/30 08:38:37;;;;;;;2.73;1.40;;;8.90;98.20;;;;;;5035851;28;20187;-69
2022/03/30 08:41:03;;;;;;;4.10;1.10;;;8.90;97.80;;;;;;5035774;28;20171;-69
2022/03/30 08:43:29;;;;;;;1.53;1.13;;;9.00;98.30;;;;;;5035854;28;20539;-68
2022/03/30 08:45:58;;;;;;;2.27;1.20;;;9.10;97.40;;;;;;5035565;28;20394;-70
2022/03/30 08:48:23;;;;;;;2.23;1.67;;;8.80;97.10;;;;;;5035975;28;20430;-69
2022/03/30 08:50:50;;;;;;;3.10;1.00;;;8.90;97.00;;;;;;5035556;28;20445;-68
2022/03/30 08:53:16;;;;;;;2.20;1.47;;;9.50;96.10;;;;;;5035582;28;20198;-69
2022/03/30 08:55:42;;;;;;;5.37;1.77;;;9.70;95.60;;;;;;5035199;28;20410;-68
2022/03/30 08:58:08;;;;;;;2.13;1.70;;;9.90;94.50;;;;;;5035091;28;20740;-68
2022/03/30 09:00:34;;;;;;;1.53;1.30;;;9.70;94.40;;;;;;5035128;28;20178;-68
2022/03/30 09:03:00;;;;;;;2.60;1.00;;;9.80;94.50;;;;;;5035240;28;20174;-69
2022/03/30 09:05:35;;;;;;;2.23;1.23;;;9.20;95.10;;;;;;5035603;28;20420;-69
2022/03/30 09:08:19;;;;;;;2.03;1.13;;;9.30;94.70;;;;;;5050551;28;20423;-69
2022/03/30 09:10:47;;;;;;;6.13;1.63;;;9.00;95.10;;;;;;5035533;28;20445;-70
2022/03/30 09:13:14;;;;;;;1.10;1.00;;;8.80;96.20;;;;;;5035840;28;20413;-69
2022/03/30 09:15:41;;;;;;;3.70;1.37;;;9.20;94.80;;;;;;5036682;28;20417;-69
2022/03/30 09:18:09;;;;;;;1.70;0.83;;;9.50;93.60;;;;;;5036626;28;20460;-69
2022/03/30 09:20:40;;;;;;;0.83;0.83;;;9.60;93.40;;;;;;5036680;28;20410;-69
2022/03/30 09:23:07;;;;;;;2.07;1.27;;;9.70;93.30;;;;;;5051854;28;20753;-69
2022/03/30 09:25:34;;;;;;;4.50;1.37;;;9.80;91.80;;;;;;5036661;28;20416;-69
2022/03/30 09:28:01;;;;;;;1.83;1.10;;;9.40;92.90;;;;;;5036892;28;20418;-69
2022/03/30 09:30:28;;;;;;;2.40;1.47;;;9.80;93.10;;;;;;5037848;28;20454;-70
2022/03/30 09:32:56;;;;;;;1.20;1.00;;;10.10;91.20;;;;;;5038566;28;20458;-70
2022/03/30 09:35:33;;;;;;;1.77;1.17;;;10.00;91.10;;;;;;5036778;28;20469;-74
2022/03/30 09:38:08;;;;;;;1.40;1.00;;;10.00;91.80;;;;;;5036808;28;20777;-73
2022/03/30 09:40:47;;;;;;;1.20;0.90;;;10.10;90.80;;;;;;5037923;28;20413;-70
2022/03/30 09:43:25;;;;;;;3.87;1.10;;;9.70;92.20;;;;;;5037748;28;20421;-69
2022/03/30 09:46:03;;;;;;;1.00;0.90;;;10.20;91.30;;;;;;5029751;28;20437;-70
2022/03/30 09:48:30;;;;;;;8.67;1.27;;;10.50;90.40;;;;;;5017221;28;20496;-71
2022/03/30 09:50:57;;;;;;;2.50;1.20;;;10.50;90.70;;;;;;5016270;28;20948;-70
2022/03/30 09:53:25;;;;;;;1.30;1.20;;;9.90;91.50;;;;;;5015940;28;20442;-70
2022/03/30 09:56:15;;;;;;;1.17;0.97;;;10.30;90.40;;;;;;5014776;28;20415;-70
2022/03/30 09:58:41;;;;;;;1.60;1.00;;;10.20;90.30;;;;;;5013751;28;20453;-69
2022/03/30 10:01:23;;;;;;;1.50;1.00;;;10.40;90.70;;;;;;5015526;28;20418;-70
2022/03/30 10:03:59;;;;;;;1.57;1.07;;;10.50;90.10;;;;;;5021665;28;20437;-69
2022/03/30 10:06:27;;;;;;;2.30;0.90;;;10.30;90.30;;;;;;5034107;28;20427;-69
2022/03/30 10:08:54;;;;;;;2.70;1.27;;;9.80;90.70;;;;;;5033948;28;20500;-70
2022/03/30 10:11:21;;;;;;;1.00;0.90;;;9.90;91.80;;;;;;5034108;28;20414;-69
2022/03/30 10:13:50;;;;;;;3.57;1.07;;;9.90;91.40;;;;;;5033958;28;20414;-70
2022/03/30 10:16:18;;;;;;;2.80;1.47;;;9.90;91.60;;;;;;5033860;28;20458;-70
2022/03/30 10:18:44;;;;;;;0.80;0.80;;;10.00;90.20;;;;;;5026768;28;20963;-70
2022/03/30 10:21:25;;;;;;;1.37;0.90;;;9.70;90.50;;;;;;5015066;28;20940;-70
2022/03/30 10:24:05;;;;;;;2.80;1.13;;;9.90;90.00;;;;;;5040308;28;20405;-69
2022/03/30 10:26:55;;;;;;;1.70;0.97;;;10.10;89.10;;;;;;5053637;28;20440;-69
2022/03/30 10:29:24;;;;;;;1.20;1.10;;;10.10;90.10;;;;;;5053053;28;20473;-69
2022/03/30 10:32:12;;;;;;;1.20;1.10;;;10.40;88.80;;;;;;5053202;28;20410;-69
2022/03/30 10:34:42;;;;;;;1.80;1.20;;;10.30;90.20;;;;;;5053142;28;20513;-69
2022/03/30 10:37:09;;;;;;;1.50;1.03;;;10.30;88.20;;;;;;5053403;28;20417;-68
2022/03/30 10:39:55;;;;;;;1.90;0.90;;;10.00;89.10;;;;;;5053176;28;20441;-70
2022/03/30 10:42:21;;;;;;;1.50;1.20;;;10.00;88.90;;;;;;5051237;28;20405;-69
2022/03/30 10:44:57;;;;;;;2.40;1.17;;;9.90;90.30;;;;;;5049157;28;20920;-69
2022/03/30 10:47:25;;;;;;;1.60;1.07;;;10.30;89.40;;;;;;5033448;28;20198;-70
2022/03/30 10:50:00;;;;;;;3.47;1.70;;;10.50;88.20;;;;;;5032873;28;20987;-69
2022/03/30 10:52:40;;;;;;;1.60;1.17;;;10.50;87.60;;;;;;5032760;28;20409;-69
2022/03/30 10:55:14;;;;;;;3.17;1.20;;;10.30;88.90;;;;;;5032722;28;20402;-69
2022/03/30 10:57:44;;;;;;;4.27;1.73;;;10.30;89.10;;;;;;5030637;28;20405;-69
2022/03/30 11:00:17;;;;;;;1.63;1.00;;;10.60;88.90;;;;;;5031720;28;20549;-70
2022/03/30 11:02:43;;;;;;;1.07;1.03;;;10.40;88.20;;;;;;5031294;28;20410;-72
2022/03/30 11:05:14;;;;;;;1.40;1.17;;;10.70;87.30;;;;;;5032936;28;20540;-69
2022/03/30 11:07:40;;;;;;;2.67;0.90;;;10.60;86.70;;;;;;5036644;28;20517;-69
2022/03/30 11:10:17;;;;;;;1.10;1.00;;;10.70;85.30;;;;;;5031766;28;20520;-68
2022/03/30 11:13:00;;;;;;;1.90;1.30;;;10.80;84.40;;;;;;5032541;28;20406;-71
2022/03/30 11:15:26;;;;;;;1.93;1.47;;;10.90;85.00;;;;;;5032944;28;20405;-70
2022/03/30 11:17:52;;;;;;;1.97;1.00;;;10.90;84.70;;;;;;5012900;28;20435;-69
2022/03/30 11:20:19;;;;;;;3.73;1.00;;;10.80;84.90;;;;;;5015329;28;20451;-70
2022/03/30 11:22:46;;;;;;;1.60;1.17;;;11.00;84.70;;;;;;5012913;28;20176;-68
2022/03/30 11:25:23;;;;;;;1.50;1.40;;;10.50;85.70;;;;;;5029348;28;20567;-68
2022/03/30 11:28:01;;;;;;;3.13;1.10;;;10.70;85.30;;;;;;5032374;28;20488;-69
2022/03/30 11:30:32;;;;;;;2.23;1.50;;;11.00;84.90;;;;;;5032157;28;20508;-69
2022/03/30 11:33:17;;;;;;;3.53;1.37;;;11.40;82.80;;;;;;5032049;28;20426;-69
2022/03/30 11:35:43;;;;;;;3.17;1.63;;;11.10;82.30;;;;;;5032301;28;20407;-70
2022/03/30 11:38:11;;;;;;;1.83;1.00;;;10.60;82.90;;;;;;5032076;28;20514;-68
2022/03/30 11:40:42;;;;;;;1.20;1.10;;;10.30;84.70;;;;;;5031765;28;20418;-68
2022/03/30 11:43:09;;;;;;;0.97;0.90;;;10.20;84.90;;;;;;5031888;28;20462;-68
2022/03/30 11:45:35;;;;;;;1.30;1.10;;;10.60;84.90;;;;;;5031613;28;20422;-70
2022/03/30 11:48:10;;;;;;;1.87;1.40;;;10.50;84.20;;;;;;5031763;28;20420;-69
2022/03/30 11:50:48;;;;;;;1.97;1.47;;;10.80;83.60;;;;;;5031500;28;20966;-69
2022/03/30 11:53:25;;;;;;;3.33;1.77;;;11.00;83.50;;;;;;5031659;28;20414;-69
2022/03/30 11:55:55;;;;;;;1.60;1.50;;;10.90;83.20;;;;;;5031704;28;20894;-72
2022/03/30 11:58:27;;;;;;;1.20;1.00;;;10.90;83.40;;;;;;5031665;28;20438;-68
2022/03/30 12:00:56;;;;;;;1.33;1.23;;;10.60;83.70;;;;;;5031670;28;20418;-67
2022/03/30 12:03:22;;;;;;;1.27;1.17;;;10.60;83.60;;;;;;5031684;28;20755;-68
2022/03/30 12:05:54;;;;;;;2.90;1.33;;;10.40;83.40;;;;;;5031879;28;20442;-68
2022/03/30 12:08:20;;;;;;;1.50;1.40;;;10.30;84.40;;;;;;5031359;28;20479;-69
2022/03/30 12:10:48;;;;;;;1.97;1.77;;;10.10;84.50;;;;;;5029896;28;20461;-69
2022/03/30 12:13:21;;;;;;;1.50;1.40;;;10.30;85.20;;;;;;5031679;28;20305;-75
2022/03/30 12:15:47;;;;;;;1.30;1.20;;;10.30;87.10;;;;;;5031521;28;20905;-69
2022/03/30 12:18:12;;;;;;;1.40;1.30;;;10.20;85.50;;;;;;5031330;28;20426;-69
2022/03/30 12:20:37;;;;;;;3.40;1.80;;;10.00;86.10;;;;;;5031260;28;20172;-69
2022/03/30 12:23:06;;;;;;;2.00;1.53;;;9.90;88.10;;;;;;5031112;28;20186;-69
2022/03/30 12:25:37;;;;;;;4.13;1.50;;;9.90;87.90;;;;;;5030977;28;20237;-71
2022/03/30 12:28:04;;;;;;;1.83;1.40;;;9.80;88.60;;;;;;5031318;28;20445;-68
2022/03/30 12:30:34;;;;;;;1.40;1.30;;;9.90;89.30;;;;;;5031253;28;20983;-69
2022/03/30 12:33:00;;;;;;;1.60;1.50;;;9.80;89.30;;;;;;5031399;28;20410;-69
2022/03/30 12:35:37;;;;;;;3.67;1.43;;;9.70;89.90;;;;;;5031303;28;20897;-69
2022/03/30 12:38:14;;;;;;;2.73;1.67;;;9.70;90.10;;;;;;5031771;28;20925;-68
2022/03/30 12:40:42;;;;;;;3.70;2.30;;;9.70;90.00;;;;;;5031618;28;20411;-68
2022/03/30 12:43:08;;;;;;;3.80;2.30;;;9.60;90.00;;;;;;5031903;28;20459;-68
2022/03/30 12:45:46;;;;;;;2.67;2.33;;;9.60;90.10;;;;;;5030747;28;20412;-68
2022/03/30 12:48:12;;;;;;;2.50;1.70;;;9.50;90.20;;;;;;5031150;28;20513;-68
2022/03/30 12:50:38;;;;;;;2.33;2.13;;;9.50;90.30;;;;;;5031468;28;20904;-69
2022/03/30 12:53:15;;;;;;;2.17;2.00;;;9.50;90.00;;;;;;5031921;28;20180;-68
2022/03/30 12:55:42;;;;;;;4.83;1.80;;;9.30;90.20;;;;;;5033662;28;20171;-68
2022/03/30 12:58:19;;;;;;;2.20;2.07;;;9.20;90.00;;;;;;5031172;28;20490;-68
2022/03/30 13:00:49;;;;;;;2.30;2.10;;;9.10;90.00;;;;;;5031055;28;20418;-68
2022/03/30 13:03:20;;;;;;;4.83;1.93;;;9.10;90.10;;;;;;5030872;28;20403;-68
2022/03/30 13:06:00;;;;;;;1.83;1.73;;;9.10;89.40;;;;;;5031314;28;20881;-69